Portada
METAR-TAF:

METAR-TAF

Aeroports :

Cuneo, Itàlia

latitud: 44-32-47N, longitud: 007-37-20E, altitud: 386 m

Observació

L'informe es va fer fa 3 hores i 21 minuts, a les 18:50 UTC
Vent 3 kt del Nord/Nord-Est
Temperatura 24°C
Humitat 74%
Pressió 1013 hPa
Visibilitat 10 km o més
Escasses núvols a una alçada de 4000 ft

METAR: LIMZ 181850Z 02003KT 9999 FEW040 24/19 Q1013

Hora: 00:11 (22:11 UTC)

Pronòstic

L'informe es va fer fa 5 hores i 11 minuts, a les 17:00 UTC
Pronòstic vàlid del 18 a les 18 UTC al 19 a les 18 UTC
Vent 5 kt amb direcció variable
Visibilitat 10 km o més
Núvols disperses a una alçada de 6000 ft
Probabilitat 30% :
Temporalment
l' 19 a les 13 UTC al 19 a les 17 UTC
tempesta, pluja

TAF: LIMZ 181700Z 1818/1918 VRB05KT 9999 SCT060 PROB30 TEMPO 1913/1917 TSRA

Observacions i pronòstics meteorològics de més de 4000 aeroports (METAR i TAF).

Les estacions disponibles són els punts grocs i vermells al mapa.

Posi el ratolí al punt desitjat per veure el nom de l'estació.

Feu clic per veure les observacions i els pronòstics meteorològics.

Per canviar el mapa: feu clic els botons verds amb una creu de color negre per apropar; al botó verd amb un guió per allunyar la imatge; o en les fletxes verdes per a mapes adjacents.


METAR-TAF: